Time;durP1;ratioP1;P1;durP2;ratioP2;P2;SDS_P1;SDS_P2;PMS_P1;PMS_P2;Temp;Humidity;BMP_temperature;BMP_pressure;BME280_temperature;BME280_humidity;BME280_pressure;Samples;Min_cycle;Max_cycle;Signal;HPM_P1;HPM_P2
2020/12/23 00:00:26;;;;;;;0.47;0.30;;;12.00;99.90;;;;;;1890567;74;21079;-75
2020/12/23 00:02:49;;;;;;;0.20;0.20;;;12.00;99.90;;;;;;1893802;74;21473;-75
2020/12/23 00:05:16;;;;;;;0.50;0.50;;;12.00;99.90;;;;;;1905989;73;21659;-75
2020/12/23 00:07:43;;;;;;;1.15;0.50;;;11.80;99.90;;;;;;1883108;74;21089;-75
2020/12/23 00:10:09;;;;;;;0.40;0.40;;;11.90;99.90;;;;;;1887866;74;21073;-75
2020/12/23 00:12:35;;;;;;;0.45;0.40;;;11.90;99.90;;;;;;1883246;74;21215;-75
2020/12/23 00:15:01;;;;;;;0.30;0.30;;;11.90;99.90;;;;;;1883266;74;21136;-74
2020/12/23 00:17:27;;;;;;;3.20;0.42;;;11.90;99.90;;;;;;1892430;74;21086;-75
2020/12/23 00:19:53;;;;;;;0.70;0.50;;;12.00;99.90;;;;;;1889342;74;21149;-73
2020/12/23 00:22:19;;;;;;;0.90;0.47;;;11.90;99.90;;;;;;1888804;74;21044;-73
2020/12/23 00:24:45;;;;;;;1.75;0.60;;;11.80;99.90;;;;;;1895722;74;21614;-73
2020/12/23 00:27:12;;;;;;;1.17;0.40;;;11.70;99.90;;;;;;1887854;74;21079;-73
2020/12/23 00:29:38;;;;;;;0.50;0.50;;;11.60;99.90;;;;;;1887944;74;21089;-73
2020/12/23 00:32:04;;;;;;;1.00;0.60;;;11.70;99.90;;;;;;1893662;74;21141;-75
2020/12/23 00:34:30;;;;;;;3.95;0.65;;;11.60;99.90;;;;;;1903448;74;21091;-75
2020/12/23 00:36:56;;;;;;;2.10;0.82;;;11.60;99.90;;;;;;1902503;74;21097;-73
2020/12/23 00:39:22;;;;;;;0.80;0.57;;;11.60;99.90;;;;;;1924973;73;21255;-74
2020/12/23 00:41:48;;;;;;;1.12;0.50;;;11.60;99.90;;;;;;1911620;73;21091;-73
2020/12/23 00:44:15;;;;;;;2.35;0.70;;;11.80;99.90;;;;;;1911354;74;21090;-73
2020/12/23 00:46:41;;;;;;;0.62;0.62;;;11.80;99.90;;;;;;1909338;74;21470;-75
2020/12/23 00:49:07;;;;;;;0.23;0.23;;;11.90;99.90;;;;;;1883237;74;21554;-73
2020/12/23 00:51:33;;;;;;;0.45;0.40;;;11.80;99.90;;;;;;1902394;74;21094;-73
2020/12/23 00:54:00;;;;;;;0.28;0.28;;;12.00;99.90;;;;;;1890033;74;21125;-73
2020/12/23 00:56:26;;;;;;;0.30;0.30;;;12.20;99.90;;;;;;1909649;73;21171;-75
2020/12/23 00:58:52;;;;;;;0.30;0.30;;;12.40;99.90;;;;;;1890851;74;21081;-73
2020/12/23 01:01:18;;;;;;;0.40;0.30;;;12.50;99.90;;;;;;1887814;74;21172;-73
2020/12/23 01:03:44;;;;;;;0.40;0.40;;;12.50;99.90;;;;;;1897791;74;21079;-74
2020/12/23 01:06:10;;;;;;;0.50;0.40;;;12.60;99.90;;;;;;1888609;74;21043;-74
2020/12/23 01:08:36;;;;;;;0.30;0.25;;;12.50;99.90;;;;;;1899990;73;21081;-73
2020/12/23 01:11:02;;;;;;;0.65;0.50;;;12.60;99.90;;;;;;1921941;73;21080;-73
2020/12/23 01:13:29;;;;;;;2.65;0.35;;;12.80;99.90;;;;;;1917468;74;21091;-74
2020/12/23 01:15:55;;;;;;;0.37;0.37;;;12.90;99.90;;;;;;1910686;74;21082;-73
2020/12/23 01:18:21;;;;;;;0.47;0.28;;;12.90;99.90;;;;;;1921451;74;21156;-73
2020/12/23 01:20:47;;;;;;;0.72;0.30;;;13.00;99.90;;;;;;1901148;74;21487;-74
2020/12/23 01:23:13;;;;;;;0.20;0.20;;;13.00;99.90;;;;;;1901185;74;21512;-74
2020/12/23 01:25:39;;;;;;;0.70;0.35;;;13.10;99.90;;;;;;1924960;73;21685;-73
2020/12/23 01:28:05;;;;;;;1.35;0.45;;;13.10;99.90;;;;;;1911154;74;21486;-73
2020/12/23 01:30:31;;;;;;;0.40;0.40;;;13.10;99.90;;;;;;1902798;74;21502;-74
2020/12/23 01:32:58;;;;;;;1.45;0.30;;;13.10;99.90;;;;;;1899012;74;21082;-74
2020/12/23 01:35:24;;;;;;;0.25;0.25;;;13.10;99.90;;;;;;1903321;74;21047;-73
2020/12/23 01:37:50;;;;;;;0.33;0.33;;;13.20;99.90;;;;;;1883275;74;21077;-74
2020/12/23 01:40:16;;;;;;;0.30;0.30;;;13.20;99.90;;;;;;1888115;74;21078;-74
2020/12/23 01:42:42;;;;;;;0.30;0.30;;;13.20;99.90;;;;;;1887965;74;21151;-74
2020/12/23 01:45:08;;;;;;;0.20;0.20;;;13.40;99.90;;;;;;1892101;74;21082;-74
2020/12/23 01:47:35;;;;;;;1.65;0.30;;;13.40;99.90;;;;;;1883215;74;21050;-73
2020/12/23 01:50:01;;;;;;;0.42;0.30;;;13.40;99.90;;;;;;1902426;74;21133;-74
2020/12/23 01:52:27;;;;;;;0.25;0.17;;;13.50;99.90;;;;;;1895708;73;21089;-74
2020/12/23 01:54:53;;;;;;;1.47;0.20;;;13.60;99.90;;;;;;1907994;73;21147;-74
2020/12/23 01:57:19;;;;;;;0.33;0.20;;;13.70;99.90;;;;;;1895773;74;21051;-73
2020/12/23 01:59:45;;;;;;;0.30;0.30;;;13.80;99.90;;;;;;1906010;74;21537;-74
2020/12/23 02:02:11;;;;;;;0.10;0.10;;;13.80;99.90;;;;;;1925320;73;21527;-74
2020/12/23 02:04:37;;;;;;;1.37;0.10;;;13.80;99.90;;;;;;1896241;74;21564;-73
2020/12/23 02:07:04;;;;;;;0.10;0.10;;;13.90;99.90;;;;;;1907126;74;21587;-74
2020/12/23 02:09:30;;;;;;;0.20;0.20;;;13.80;99.90;;;;;;1926109;73;21543;-74
2020/12/23 02:11:56;;;;;;;0.20;0.20;;;13.80;99.90;;;;;;1885731;74;21113;-74
2020/12/23 02:14:22;;;;;;;4.58;0.20;;;13.90;99.90;;;;;;1900935;74;21145;-74
2020/12/23 02:16:48;;;;;;;0.20;0.20;;;14.20;99.90;;;;;;1921993;74;21085;-74
2020/12/23 02:19:14;;;;;;;0.13;0.13;;;14.30;99.90;;;;;;1899451;74;21151;-74
2020/12/23 02:21:40;;;;;;;0.20;0.10;;;14.30;99.90;;;;;;1899242;74;21148;-74
2020/12/23 02:24:06;;;;;;;0.20;0.20;;;14.30;99.90;;;;;;1915200;73;21079;-74
2020/12/23 02:26:32;;;;;;;0.10;0.10;;;14.30;99.90;;;;;;1895084;74;21131;-74
2020/12/23 02:28:59;;;;;;;1.17;0.62;;;14.40;99.90;;;;;;1888291;74;21211;-74
2020/12/23 02:31:25;;;;;;;0.20;0.20;;;14.50;99.90;;;;;;1914212;73;21201;-74
2020/12/23 02:33:51;;;;;;;0.13;0.13;;;14.50;99.90;;;;;;1883931;74;21078;-74
2020/12/23 02:36:17;;;;;;;0.30;0.20;;;14.50;99.90;;;;;;1893010;73;21083;-74
2020/12/23 02:38:43;;;;;;;0.23;0.23;;;14.50;99.90;;;;;;1897849;74;21147;-74
2020/12/23 02:41:09;;;;;;;0.30;0.10;;;14.40;99.90;;;;;;1914904;74;21137;-74
2020/12/23 02:43:35;;;;;;;2.00;0.70;;;14.40;99.90;;;;;;1925100;74;21208;-74
2020/12/23 02:46:01;;;;;;;0.10;0.10;;;14.50;99.90;;;;;;1906677;73;21086;-74
2020/12/23 02:48:28;;;;;;;0.60;0.20;;;14.50;99.90;;;;;;1893955;74;21079;-74
2020/12/23 02:50:54;;;;;;;1.32;0.30;;;14.50;99.90;;;;;;1895506;74;21140;-74
2020/12/23 02:53:22;;;;;;;0.00;0.00;;;14.50;99.90;;;;;;1888215;74;21054;-75
2020/12/23 02:55:49;;;;;;;0.20;0.20;;;14.50;99.90;;;;;;1882996;74;21135;-75
2020/12/23 02:58:15;;;;;;;10.98;0.30;;;14.50;99.90;;;;;;1888154;74;21093;-74
2020/12/23 03:00:41;;;;;;;0.17;0.10;;;14.50;99.90;;;;;;1895864;74;21073;-74
2020/12/23 03:03:07;;;;;;;0.25;0.20;;;14.50;99.90;;;;;;1891752;74;21079;-75
2020/12/23 03:05:33;;;;;;;0.13;0.13;;;14.50;99.90;;;;;;1909687;74;21083;-74
2020/12/23 03:07:59;;;;;;;0.03;0.03;;;14.40;99.90;;;;;;1896810;73;21129;-74
2020/12/23 03:10:25;;;;;;;0.15;0.15;;;14.40;99.90;;;;;;1891595;74;21133;-75
2020/12/23 03:12:52;;;;;;;0.62;0.25;;;14.40;99.90;;;;;;1895668;74;21179;-75
2020/12/23 03:15:18;;;;;;;0.40;0.40;;;14.40;99.90;;;;;;1900604;74;21463;-74
2020/12/23 03:17:44;;;;;;;0.90;0.23;;;14.50;99.90;;;;;;1899309;74;21487;-74
2020/12/23 03:20:10;;;;;;;0.25;0.10;;;14.50;99.90;;;;;;1898828;74;21518;-74
2020/12/23 03:22:36;;;;;;;0.33;0.20;;;14.50;99.90;;;;;;1907996;74;21497;-74
2020/12/23 03:25:02;;;;;;;0.10;0.10;;;14.50;99.90;;;;;;1892097;74;21078;-74
2020/12/23 03:27:28;;;;;;;0.85;0.20;;;14.40;99.90;;;;;;1891076;74;21038;-75
2020/12/23 03:29:56;;;;;;;3.58;0.20;;;14.40;99.90;;;;;;1910047;74;21149;-75
2020/12/23 03:32:22;;;;;;;0.10;0.10;;;14.40;99.90;;;;;;1908955;73;21050;-74
2020/12/23 03:34:48;;;;;;;1.55;0.17;;;14.40;99.90;;;;;;1883331;74;21086;-75
2020/12/23 03:37:14;;;;;;;0.23;0.10;;;14.40;99.90;;;;;;1896856;74;21075;-74
2020/12/23 03:39:40;;;;;;;0.33;0.10;;;14.40;99.90;;;;;;1900407;74;21163;-75
2020/12/23 03:42:06;;;;;;;0.10;0.10;;;14.40;99.90;;;;;;1890943;74;21081;-74
2020/12/23 03:44:32;;;;;;;0.20;0.20;;;14.40;99.90;;;;;;1902339;74;21087;-74
2020/12/23 03:46:59;;;;;;;0.28;0.20;;;14.40;99.90;;;;;;1908727;74;21140;-75
2020/12/23 03:49:25;;;;;;;0.25;0.20;;;14.30;99.90;;;;;;1897026;74;21499;-76
2020/12/23 03:51:51;;;;;;;0.57;0.10;;;14.20;99.90;;;;;;1883159;74;21561;-75
2020/12/23 03:54:17;;;;;;;0.10;0.10;;;14.10;99.90;;;;;;1905546;74;21201;-75
2020/12/23 03:56:43;;;;;;;0.10;0.10;;;14.00;99.90;;;;;;1890625;74;21132;-75
2020/12/23 03:59:09;;;;;;;0.95;0.33;;;13.90;99.90;;;;;;1907722;73;21074;-75
2020/12/23 04:01:35;;;;;;;0.25;0.25;;;13.90;99.90;;;;;;1907915;74;21047;-76
2020/12/23 04:04:01;;;;;;;0.35;0.23;;;13.90;99.90;;;;;;1887915;74;21073;-75
2020/12/23 04:06:28;;;;;;;0.20;0.20;;;13.80;99.90;;;;;;1910357;74;21141;-76
2020/12/23 04:08:54;;;;;;;0.20;0.20;;;13.70;99.90;;;;;;1893784;74;21075;-75
2020/12/23 04:11:20;;;;;;;0.20;0.20;;;13.60;99.90;;;;;;1899970;73;21052;-75
2020/12/23 04:13:46;;;;;;;0.20;0.20;;;13.60;99.90;;;;;;1883436;74;21078;-76
2020/12/23 04:16:12;;;;;;;0.13;0.13;;;13.60;99.90;;;;;;1900499;74;21081;-76
2020/12/23 04:18:38;;;;;;;0.35;0.10;;;13.60;99.90;;;;;;1900803;74;21090;-76
2020/12/23 04:21:04;;;;;;;1.65;0.23;;;13.60;99.90;;;;;;1904289;73;21043;-76
2020/12/23 04:23:30;;;;;;;0.40;0.40;;;13.60;99.90;;;;;;1913853;74;21082;-76
2020/12/23 04:25:57;;;;;;;1.02;0.42;;;13.60;99.90;;;;;;1861305;74;21077;-76
2020/12/23 04:28:23;;;;;;;0.40;0.30;;;13.50;99.90;;;;;;1883254;74;21089;-76
2020/12/23 04:30:49;;;;;;;2.72;0.20;;;13.40;99.90;;;;;;1897275;73;21440;-76
2020/12/23 04:33:15;;;;;;;0.40;0.20;;;13.40;99.90;;;;;;1895059;74;21553;-75
2020/12/23 04:35:41;;;;;;;0.28;0.28;;;13.40;99.90;;;;;;1913724;74;21467;-76
2020/12/23 04:38:07;;;;;;;0.40;0.40;;;13.40;99.90;;;;;;1902636;74;21503;-75
2020/12/23 04:40:33;;;;;;;0.10;0.10;;;13.40;99.90;;;;;;1907448;74;21462;-75
2020/12/23 04:42:59;;;;;;;0.47;0.20;;;13.40;99.90;;;;;;1901016;74;21083;-75
2020/12/23 04:45:26;;;;;;;0.28;0.20;;;13.30;99.90;;;;;;1917188;73;21127;-75
2020/12/23 04:47:52;;;;;;;0.42;0.30;;;13.30;99.90;;;;;;1913501;74;21082;-75
2020/12/23 04:50:18;;;;;;;0.10;0.10;;;13.30;99.90;;;;;;1910999;74;21046;-76
2020/12/23 04:52:44;;;;;;;0.55;0.20;;;13.30;99.90;;;;;;1910489;74;21082;-75
2020/12/23 04:55:10;;;;;;;0.30;0.30;;;13.20;99.90;;;;;;1887492;74;21198;-75
2020/12/23 04:57:36;;;;;;;0.15;0.15;;;13.10;99.90;;;;;;1917138;73;21083;-75
2020/12/23 05:00:02;;;;;;;0.30;0.30;;;13.00;99.90;;;;;;1888855;74;21050;-73
2020/12/23 05:02:28;;;;;;;0.65;0.40;;;12.80;99.90;;;;;;1883210;74;21128;-73
2020/12/23 05:04:55;;;;;;;0.30;0.30;;;12.60;99.90;;;;;;1888400;74;21164;-75
2020/12/23 05:07:21;;;;;;;0.37;0.37;;;12.60;99.90;;;;;;1919535;73;21103;-74
2020/12/23 05:09:47;;;;;;;0.20;0.20;;;12.50;99.90;;;;;;1887864;74;21565;-74
2020/12/23 05:12:14;;;;;;;0.20;0.20;;;12.50;99.90;;;;;;1909661;73;21094;-75
2020/12/23 05:14:40;;;;;;;4.08;0.60;;;12.50;99.90;;;;;;1909221;73;21082;-74
2020/12/23 05:17:06;;;;;;;1.05;0.30;;;12.50;99.90;;;;;;1888958;74;21081;-74
2020/12/23 05:19:32;;;;;;;0.28;0.28;;;12.50;99.90;;;;;;1893723;74;21079;-74
2020/12/23 05:21:58;;;;;;;0.20;0.20;;;12.50;99.90;;;;;;1905113;74;21079;-75
2020/12/23 05:24:24;;;;;;;1.20;0.45;;;12.50;99.90;;;;;;1894364;73;21073;-74
2020/12/23 05:26:50;;;;;;;4.83;0.60;;;12.60;99.90;;;;;;1914986;73;21078;-73
2020/12/23 05:29:17;;;;;;;3.75;0.33;;;12.60;99.90;;;;;;1888378;74;21078;-74
2020/12/23 05:31:43;;;;;;;0.25;0.25;;;12.60;99.90;;;;;;1910220;74;21043;-74
2020/12/23 05:34:09;;;;;;;0.35;0.35;;;12.60;99.90;;;;;;1895122;74;21082;-75
2020/12/23 05:36:35;;;;;;;0.62;0.40;;;12.60;99.90;;;;;;1893998;74;21132;-75
2020/12/23 05:39:01;;;;;;;0.30;0.30;;;12.60;99.90;;;;;;1888333;74;21152;-74
2020/12/23 05:41:27;;;;;;;0.82;0.20;;;12.50;99.90;;;;;;1887773;74;21139;-75
2020/12/23 05:43:53;;;;;;;0.20;0.20;;;12.50;99.90;;;;;;1883210;74;21078;-74
2020/12/23 05:46:20;;;;;;;0.30;0.30;;;12.50;99.90;;;;;;1887943;74;21044;-75
2020/12/23 05:48:46;;;;;;;0.40;0.30;;;12.50;99.90;;;;;;1894911;74;21132;-74
2020/12/23 05:51:12;;;;;;;0.30;0.30;;;12.50;99.90;;;;;;1911090;74;21131;-74
2020/12/23 05:53:38;;;;;;;1.00;0.30;;;12.40;99.90;;;;;;1906412;74;21578;-74
2020/12/23 05:56:04;;;;;;;0.30;0.30;;;12.50;99.90;;;;;;1915840;74;21066;-74
2020/12/23 05:58:30;;;;;;;0.45;0.40;;;12.50;99.90;;;;;;1887949;74;21083;-74
2020/12/23 06:00:57;;;;;;;0.20;0.20;;;12.40;99.90;;;;;;1888911;74;21079;-75
2020/12/23 06:03:23;;;;;;;1.20;0.40;;;12.50;99.90;;;;;;1909839;73;21124;-74
2020/12/23 06:05:49;;;;;;;0.30;0.30;;;12.30;99.90;;;;;;1900967;73;21243;-74
2020/12/23 06:08:15;;;;;;;0.75;0.37;;;12.30;99.90;;;;;;1888618;73;21051;-74
2020/12/23 06:10:41;;;;;;;0.62;0.40;;;12.30;99.90;;;;;;1892367;74;21087;-74
2020/12/23 06:13:07;;;;;;;0.53;0.30;;;12.40;99.90;;;;;;1903287;74;21086;-74
2020/12/23 06:15:33;;;;;;;0.40;0.40;;;12.30;99.90;;;;;;1893170;74;21157;-74
2020/12/23 06:18:00;;;;;;;1.62;0.65;;;12.30;99.90;;;;;;1923474;74;21104;-75
2020/12/23 06:20:26;;;;;;;3.37;0.62;;;12.30;99.90;;;;;;1910113;74;21155;-75
2020/12/23 06:22:52;;;;;;;0.70;0.70;;;12.30;99.90;;;;;;1888276;74;21081;-75
2020/12/23 06:25:18;;;;;;;1.02;0.60;;;12.30;99.90;;;;;;1917517;74;21482;-74
2020/12/23 06:27:44;;;;;;;1.20;0.50;;;12.30;99.90;;;;;;1883101;74;21458;-74
2020/12/23 06:30:10;;;;;;;1.07;0.47;;;12.40;99.90;;;;;;1894401;74;21535;-75
2020/12/23 06:32:36;;;;;;;4.33;0.47;;;12.40;99.90;;;;;;1899339;74;21578;-76
2020/12/23 06:35:02;;;;;;;0.40;0.40;;;12.30;99.90;;;;;;1909626;74;21547;-76
2020/12/23 06:37:28;;;;;;;0.40;0.40;;;12.40;99.90;;;;;;1897167;74;21050;-75
2020/12/23 06:39:55;;;;;;;0.80;0.70;;;12.30;99.90;;;;;;1921067;73;21082;-76
2020/12/23 06:42:21;;;;;;;1.37;0.45;;;12.30;99.90;;;;;;1903581;73;21071;-75
2020/12/23 06:44:47;;;;;;;2.15;0.70;;;12.30;99.90;;;;;;1901270;73;21166;-75
2020/12/23 06:47:13;;;;;;;1.00;0.53;;;12.30;99.90;;;;;;1890789;74;21050;-75
2020/12/23 06:49:39;;;;;;;3.05;0.47;;;12.30;99.90;;;;;;1922607;74;21078;-74
2020/12/23 06:52:05;;;;;;;0.82;0.47;;;12.20;99.90;;;;;;1900870;74;21136;-75
2020/12/23 06:54:31;;;;;;;1.20;0.72;;;12.10;99.90;;;;;;1902971;74;21075;-74
2020/12/23 06:56:57;;;;;;;1.50;0.50;;;12.20;99.90;;;;;;1891312;74;21054;-74
2020/12/23 06:59:24;;;;;;;0.62;0.47;;;12.20;99.90;;;;;;1904918;74;21094;-74
2020/12/23 07:01:50;;;;;;;0.47;0.47;;;12.20;99.90;;;;;;1904006;74;21074;-75
2020/12/23 07:04:16;;;;;;;1.42;0.70;;;12.30;99.90;;;;;;1900374;74;21132;-75
2020/12/23 07:06:42;;;;;;;0.68;0.60;;;12.20;99.90;;;;;;1913855;73;21047;-75
2020/12/23 07:09:09;;;;;;;1.00;0.60;;;12.20;99.90;;;;;;1895524;74;21081;-74
2020/12/23 07:11:36;;;;;;;0.72;0.72;;;12.20;99.90;;;;;;1906433;74;21087;-74
2020/12/23 07:14:02;;;;;;;0.65;0.65;;;12.20;99.90;;;;;;1902291;73;21143;-74
2020/12/23 07:16:28;;;;;;;1.15;0.80;;;12.20;99.90;;;;;;1898616;74;21046;-74
2020/12/23 07:18:54;;;;;;;0.78;0.55;;;12.20;99.90;;;;;;1888281;74;21137;-75
2020/12/23 07:21:20;;;;;;;0.37;0.37;;;12.20;99.90;;;;;;1883118;74;21196;-74
2020/12/23 07:23:46;;;;;;;5.15;0.60;;;12.20;99.90;;;;;;1910163;73;21177;-74
2020/12/23 07:26:12;;;;;;;3.50;0.68;;;12.00;99.90;;;;;;1895626;74;21046;-75
2020/12/23 07:28:38;;;;;;;2.47;0.60;;;12.10;99.90;;;;;;1916935;73;21078;-74
2020/12/23 07:31:05;;;;;;;0.68;0.50;;;12.10;99.90;;;;;;1917325;74;21078;-74
2020/12/23 07:33:31;;;;;;;1.65;0.93;;;12.10;99.90;;;;;;1885834;74;21082;-75
2020/12/23 07:35:57;;;;;;;0.40;0.40;;;12.10;99.90;;;;;;1883367;74;21055;-74
2020/12/23 07:38:23;;;;;;;1.05;0.55;;;12.10;99.90;;;;;;1901262;74;21132;-74
2020/12/23 07:40:49;;;;;;;6.22;0.70;;;12.10;99.90;;;;;;1899375;74;21156;-74
2020/12/23 07:43:15;;;;;;;2.15;0.82;;;12.10;99.90;;;;;;1882585;74;21094;-74
2020/12/23 07:45:41;;;;;;;0.90;0.75;;;12.10;99.90;;;;;;1917228;73;21093;-75
2020/12/23 07:48:07;;;;;;;2.37;1.10;;;12.00;99.90;;;;;;1900677;74;21164;-75
2020/12/23 07:50:34;;;;;;;1.77;0.98;;;12.10;99.90;;;;;;1890301;74;21511;-74
2020/12/23 07:53:00;;;;;;;2.90;1.30;;;12.10;99.90;;;;;;1898575;74;21469;-74
2020/12/23 07:55:26;;;;;;;2.47;1.12;;;12.20;99.90;;;;;;1888233;74;21446;-74
2020/12/23 07:57:53;;;;;;;1.95;0.93;;;12.30;99.90;;;;;;1888369;74;21495;-75
2020/12/23 08:00:19;;;;;;;2.10;1.10;;;12.30;99.90;;;;;;1908509;74;21149;-74
2020/12/23 08:02:45;;;;;;;3.02;1.52;;;12.30;99.90;;;;;;1908279;74;21140;-74
2020/12/23 08:05:12;;;;;;;1.02;0.65;;;12.30;99.90;;;;;;1888114;74;21501;-78
2020/12/23 08:07:38;;;;;;;15.75;3.90;;;12.30;99.90;;;;;;1883202;74;21176;-78
2020/12/23 08:10:04;;;;;;;28.52;5.50;;;12.40;99.90;;;;;;1905534;74;21079;-79
2020/12/23 08:12:30;;;;;;;4.55;1.30;;;12.40;99.90;;;;;;1897347;74;21156;-76
2020/12/23 08:14:56;;;;;;;8.78;2.25;;;12.40;99.90;;;;;;1888373;74;21479;-75
2020/12/23 08:17:22;;;;;;;4.90;1.85;;;12.50;99.90;;;;;;1908556;74;21482;-75
2020/12/23 08:19:49;;;;;;;1.12;0.90;;;12.50;99.90;;;;;;1883153;74;21511;-76
2020/12/23 08:22:15;;;;;;;1.27;0.70;;;12.60;99.90;;;;;;1883218;74;21572;-76
2020/12/23 08:24:41;;;;;;;1.20;0.50;;;12.60;99.90;;;;;;1892455;74;21556;-74
2020/12/23 08:27:07;;;;;;;4.65;0.50;;;12.80;99.90;;;;;;1899591;74;21137;-75
2020/12/23 08:29:33;;;;;;;0.30;0.30;;;12.90;99.90;;;;;;1904921;74;21143;-76
2020/12/23 08:31:59;;;;;;;0.53;0.50;;;13.00;99.90;;;;;;1909680;73;21070;-77
2020/12/23 08:34:25;;;;;;;0.23;0.23;;;13.20;99.90;;;;;;1887910;74;21214;-77
2020/12/23 08:36:52;;;;;;;0.75;0.50;;;13.30;99.90;;;;;;1899641;74;21147;-75
2020/12/23 08:39:18;;;;;;;3.35;0.80;;;13.50;99.90;;;;;;1923952;73;21082;-76
2020/12/23 08:41:45;;;;;;;1.07;0.50;;;13.50;99.90;;;;;;1888330;74;21081;-78
2020/12/23 08:44:11;;;;;;;0.57;0.20;;;13.50;99.90;;;;;;1902315;74;21069;-80
2020/12/23 08:46:37;;;;;;;1.60;0.50;;;13.50;99.90;;;;;;1888281;74;21180;-80
2020/12/23 08:49:03;;;;;;;0.40;0.40;;;13.50;99.90;;;;;;1884839;74;21135;-78
2020/12/23 08:51:31;;;;;;;0.20;0.20;;;13.60;99.90;;;;;;1886937;74;21086;-78
2020/12/23 08:53:57;;;;;;;0.75;0.47;;;13.70;99.90;;;;;;1911892;73;21536;-78
2020/12/23 08:56:23;;;;;;;0.45;0.20;;;13.90;99.90;;;;;;1924112;73;21528;-77
2020/12/23 08:58:49;;;;;;;3.75;0.47;;;13.90;99.90;;;;;;1885949;74;21077;-75
2020/12/23 09:01:15;;;;;;;4.05;0.50;;;13.90;99.90;;;;;;1886317;73;21085;-78
2020/12/23 09:03:41;;;;;;;7.65;0.53;;;13.90;99.90;;;;;;1905224;74;21064;-83
2020/12/23 09:06:07;;;;;;;1.55;0.50;;;13.60;99.90;;;;;;1888119;74;21201;-83
2020/12/23 09:08:34;;;;;;;0.30;0.30;;;13.80;99.90;;;;;;1898528;74;21057;-83
2020/12/23 09:11:00;;;;;;;1.47;0.60;;;13.90;99.90;;;;;;1916774;73;21087;-77
2020/12/23 09:13:26;;;;;;;0.93;0.45;;;14.00;99.90;;;;;;1891562;74;21131;-79
2020/12/23 09:15:52;;;;;;;0.20;0.20;;;14.00;99.90;;;;;;1899665;74;21076;-79
2020/12/23 09:18:18;;;;;;;2.47;0.70;;;14.00;99.90;;;;;;1895823;73;21261;-76
2020/12/23 09:20:44;;;;;;;0.82;0.70;;;14.00;99.90;;;;;;1910099;73;21094;-78
2020/12/23 09:23:11;;;;;;;3.17;0.62;;;14.00;99.90;;;;;;1913106;74;21144;-78
2020/12/23 09:25:37;;;;;;;1.05;0.42;;;14.10;99.90;;;;;;1897226;74;21141;-78
2020/12/23 09:28:03;;;;;;;0.80;0.35;;;14.00;99.90;;;;;;1899571;74;21073;-76
2020/12/23 09:30:29;;;;;;;0.82;0.50;;;14.00;99.90;;;;;;1888216;74;21050;-77
2020/12/23 09:32:55;;;;;;;3.12;0.88;;;13.90;99.90;;;;;;1899489;74;21083;-76
2020/12/23 09:35:23;;;;;;;0.60;0.60;;;13.90;99.90;;;;;;1895840;74;21205;-78
2020/12/23 09:37:49;;;;;;;2.72;0.53;;;13.90;99.90;;;;;;1909470;74;21107;-77
2020/12/23 09:40:15;;;;;;;0.80;0.40;;;14.00;99.90;;;;;;1910495;73;21064;-75
2020/12/23 09:42:41;;;;;;;0.50;0.40;;;14.00;99.90;;;;;;1893392;74;21070;-78
2020/12/23 09:45:07;;;;;;;1.02;0.47;;;14.00;99.90;;;;;;1889146;74;21162;-78
2020/12/23 09:47:34;;;;;;;1.25;0.60;;;14.00;99.90;;;;;;1901841;74;21125;-79
2020/12/23 09:50:02;;;;;;;3.22;0.60;;;14.00;99.90;;;;;;1901776;74;21119;-79
2020/12/23 09:52:27;;;;;;;0.62;0.60;;;14.00;99.90;;;;;;1884187;74;21106;-78
2020/12/23 09:54:54;;;;;;;1.95;0.50;;;14.10;99.90;;;;;;1925171;74;21192;-78
2020/12/23 09:57:20;;;;;;;6.05;0.68;;;14.10;99.90;;;;;;1925227;73;21174;-78
2020/12/23 09:59:46;;;;;;;1.85;0.72;;;14.10;99.90;;;;;;1916300;74;21090;-79
2020/12/23 10:02:12;;;;;;;2.50;0.70;;;14.10;99.90;;;;;;1900746;74;21071;-78
2020/12/23 10:04:38;;;;;;;0.82;0.47;;;14.00;99.90;;;;;;1909539;74;21078;-76
2020/12/23 10:07:04;;;;;;;0.37;0.37;;;14.10;99.90;;;;;;1901102;74;21148;-80
2020/12/23 10:09:30;;;;;;;2.17;0.80;;;14.10;99.90;;;;;;1884306;74;21152;-78
2020/12/23 10:11:56;;;;;;;0.60;0.60;;;14.10;99.90;;;;;;1915917;74;21158;-75
2020/12/23 10:14:23;;;;;;;0.47;0.47;;;14.20;99.90;;;;;;1888661;74;21133;-79
2020/12/23 10:16:49;;;;;;;4.03;0.65;;;14.20;99.90;;;;;;1890712;73;21052;-79
2020/12/23 10:19:15;;;;;;;2.30;0.82;;;14.30;99.90;;;;;;1899338;74;21070;-77
2020/12/23 10:21:41;;;;;;;0.85;0.50;;;14.40;99.90;;;;;;1883179;74;21077;-82
2020/12/23 10:24:07;;;;;;;0.65;0.50;;;14.40;99.90;;;;;;1916966;74;21118;-79
2020/12/23 10:26:33;;;;;;;2.05;0.55;;;14.40;99.90;;;;;;1897438;74;21052;-78
2020/12/23 10:29:18;;;;;;;;;;;;;;;;;;;;;
2020/12/23 10:31:27;;;;;;;0.68;0.40;;;14.50;99.90;;;;;;1893656;74;21179;-82
2020/12/23 10:33:53;;;;;;;0.55;0.50;;;14.40;99.90;;;;;;1900189;74;21081;-82
2020/12/23 10:36:19;;;;;;;0.40;0.40;;;14.50;99.90;;;;;;1893433;74;21116;-82
2020/12/23 10:38:45;;;;;;;1.17;0.65;;;14.50;99.90;;;;;;1903167;74;21087;-83
2020/12/23 10:41:12;;;;;;;0.50;0.40;;;14.70;99.90;;;;;;1909504;74;21075;-83
2020/12/23 10:43:38;;;;;;;1.25;0.50;;;14.70;99.90;;;;;;1897234;74;21204;-77
2020/12/23 10:46:04;;;;;;;0.90;0.50;;;14.80;99.90;;;;;;1894030;74;21048;-78
2020/12/23 10:48:30;;;;;;;0.25;0.25;;;14.90;99.90;;;;;;1911989;74;21070;-80
2020/12/23 10:50:58;;;;;;;0.98;0.55;;;15.00;99.90;;;;;;1894977;74;21151;-82
2020/12/23 10:53:24;;;;;;;0.50;0.47;;;15.00;99.90;;;;;;1902874;74;21085;-81
2020/12/23 10:55:50;;;;;;;0.53;0.40;;;15.10;99.90;;;;;;1898327;74;21448;-82
2020/12/23 10:58:16;;;;;;;0.98;0.47;;;15.10;99.90;;;;;;1900436;73;21107;-78
2020/12/23 11:00:42;;;;;;;1.20;0.40;;;15.30;99.90;;;;;;1908218;73;21572;-77
2020/12/23 11:03:08;;;;;;;0.85;0.25;;;15.40;99.90;;;;;;1903175;74;21548;-83
2020/12/23 11:05:38;;;;;;;0.33;0.30;;;15.50;99.90;;;;;;1899938;74;21511;-85
2020/12/23 11:08:05;;;;;;;1.22;0.30;;;15.40;99.90;;;;;;1912071;74;21100;-85
2020/12/23 11:10:30;;;;;;;0.23;0.23;;;15.50;99.90;;;;;;1906383;73;21101;-78
2020/12/23 11:12:56;;;;;;;0.55;0.53;;;15.40;99.90;;;;;;1906814;74;21149;-79
2020/12/23 11:15:22;;;;;;;0.50;0.35;;;15.30;99.90;;;;;;1883224;74;21066;-82
2020/12/23 11:17:48;;;;;;;0.37;0.30;;;15.30;99.90;;;;;;1889390;74;21078;-82
2020/12/23 11:20:15;;;;;;;0.90;0.68;;;15.50;99.90;;;;;;1885358;74;21143;-84
2020/12/23 11:22:45;;;;;;;2.62;0.60;;;15.50;99.90;;;;;;1917588;73;21081;-85
2020/12/23 11:25:09;;;;;;;0.62;0.50;;;15.40;99.90;;;;;;1923063;74;21177;-84
2020/12/23 11:27:35;;;;;;;1.85;0.88;;;15.40;99.90;;;;;;1901402;74;21148;-85
2020/12/23 11:30:01;;;;;;;5.17;1.47;;;15.40;99.90;;;;;;1895479;73;21074;-86
2020/12/23 11:32:27;;;;;;;0.95;0.40;;;15.30;99.90;;;;;;1887035;74;21090;-80
2020/12/23 11:34:53;;;;;;;1.70;0.78;;;15.30;99.90;;;;;;1889740;74;21085;-85
2020/12/23 11:37:19;;;;;;;1.95;1.02;;;15.20;99.90;;;;;;1897131;74;21039;-84
2020/12/23 11:39:45;;;;;;;2.17;1.00;;;15.20;99.90;;;;;;1896471;74;21132;-84
2020/12/23 11:42:11;;;;;;;0.78;0.55;;;15.10;99.90;;;;;;1921786;73;21165;-84
2020/12/23 11:44:39;;;;;;;4.60;0.88;;;15.00;99.90;;;;;;1902071;73;21113;-84
2020/12/23 11:47:14;;;;;;;0.85;0.85;;;15.00;99.90;;;;;;1883449;74;21077;-85
2020/12/23 11:49:33;;;;;;;0.85;0.68;;;15.00;99.90;;;;;;1897984;74;21506;-86
2020/12/23 11:51:59;;;;;;;9.13;1.30;;;15.00;99.90;;;;;;1883439;74;21480;-85
2020/12/23 11:54:25;;;;;;;3.70;1.55;;;15.00;99.90;;;;;;1919661;74;21564;-85
2020/12/23 11:56:52;;;;;;;4.87;1.17;;;15.00;99.90;;;;;;1901552;74;21081;-87
2020/12/23 11:59:18;;;;;;;1.67;0.60;;;15.00;99.90;;;;;;1882928;74;21121;-84
2020/12/23 12:01:44;;;;;;;0.85;0.60;;;15.00;99.90;;;;;;1896846;73;21078;-81
2020/12/23 12:04:11;;;;;;;1.32;0.65;;;15.00;99.90;;;;;;1910464;74;21083;-81
2020/12/23 12:06:37;;;;;;;1.50;0.70;;;14.90;99.90;;;;;;1872525;75;21686;-78
2020/12/23 12:09:03;;;;;;;3.45;1.00;;;15.00;99.90;;;;;;1888457;74;21082;-79
2020/12/23 12:11:30;;;;;;;0.65;0.50;;;15.00;99.90;;;;;;1902816;74;21068;-80
2020/12/23 12:13:57;;;;;;;4.47;0.57;;;14.90;99.90;;;;;;1893162;74;21148;-81
2020/12/23 12:16:24;;;;;;;0.68;0.65;;;14.80;99.90;;;;;;1888489;74;21081;-79
2020/12/23 12:18:50;;;;;;;1.22;0.60;;;14.70;99.90;;;;;;1892225;74;21085;-80
2020/12/23 12:21:16;;;;;;;0.72;0.40;;;14.90;99.90;;;;;;1876898;74;21203;-83
2020/12/23 12:23:42;;;;;;;3.55;1.25;;;14.80;99.90;;;;;;1912223;73;21208;-81
2020/12/23 12:26:08;;;;;;;4.12;0.68;;;14.60;99.90;;;;;;1915265;74;21147;-83
2020/12/23 12:28:35;;;;;;;4.53;0.98;;;14.60;99.90;;;;;;1882422;74;21115;-79
2020/12/23 12:31:01;;;;;;;2.17;1.40;;;14.60;99.90;;;;;;1882116;74;21081;-81
2020/12/23 12:33:31;;;;;;;2.02;0.80;;;14.60;99.90;;;;;;1917970;74;21110;-84
2020/12/23 12:35:55;;;;;;;2.52;1.25;;;14.70;99.90;;;;;;1891794;74;21078;-83
2020/12/23 12:38:21;;;;;;;2.08;1.47;;;14.60;99.90;;;;;;1899501;74;21132;-81
2020/12/23 12:40:48;;;;;;;1.80;1.00;;;14.60;99.90;;;;;;1882502;74;21083;-79